Time;durP1;ratioP1;P1;durP2;ratioP2;P2;SDS_P1;SDS_P2;PMS_P1;PMS_P2;Temp;Humidity;BMP_temperature;BMP_pressure;BME280_temperature;BME280_humidity;BME280_pressure;Samples;Min_cycle;Max_cycle;Signal;HPM_P1;HPM_P2
2022/04/27 00:01:40;;;;;;;;;17.25;12.75;;;;;11.41;48.50;101834.34;5038853;28;45310;-43
2022/04/27 00:04:05;;;;;;;;;20.25;15.75;;;;;11.43;48.44;101834.25;5038607;28;46012;-41
2022/04/27 00:06:31;;;;;;;;;20.75;16.00;;;;;11.41;48.61;101844.16;5038397;28;45263;-44
2022/04/27 00:08:56;;;;;;;;;12.00;11.25;;;;;11.39;48.09;101838.13;5038648;28;45286;-38
2022/04/27 00:11:22;;;;;;;;;16.25;12.50;;;;;11.32;48.74;101837.78;5038705;28;45251;-40
2022/04/27 00:13:47;;;;;;;;;16.00;12.50;;;;;11.32;48.60;101835.09;5038585;28;46377;-40
2022/04/27 00:16:13;;;;;;;;;17.00;13.00;;;;;11.31;48.65;101845.91;5038691;28;45444;-39
2022/04/27 00:18:38;;;;;;;;;15.25;11.50;;;;;11.30;48.55;101844.22;5038011;28;45404;-43
2022/04/27 00:21:03;;;;;;;;;14.75;13.00;;;;;11.28;48.45;101851.47;5038774;28;45225;-42
2022/04/27 00:23:30;;;;;;;;;16.50;12.75;;;;;11.24;48.24;101837.53;5038097;28;47257;-40
2022/04/27 00:25:55;;;;;;;;;15.50;14.50;;;;;11.25;48.78;101847.25;5038364;28;45254;-41
2022/04/27 00:28:21;;;;;;;;;14.50;12.00;;;;;11.23;48.65;101844.69;5038407;28;45320;-41
2022/04/27 00:30:47;;;;;;;;;16.50;14.00;;;;;11.23;48.94;101843.84;5038563;28;45421;-41
2022/04/27 00:33:13;;;;;;;;;13.00;13.00;;;;;11.20;48.96;101846.75;5038132;28;46131;-37
2022/04/27 00:35:38;;;;;;;;;13.50;11.75;;;;;11.17;48.91;101841.69;5038060;28;45405;-38
2022/04/27 00:38:04;;;;;;;;;16.00;15.50;;;;;11.18;48.99;101843.38;5038322;28;45390;-42
2022/04/27 00:40:29;;;;;;;;;19.00;15.00;;;;;11.17;49.29;101844.34;5038552;28;45424;-39
2022/04/27 00:42:54;;;;;;;;;21.00;17.00;;;;;11.11;49.00;101834.19;5038023;28;46297;-39
2022/04/27 00:45:20;;;;;;;;;21.25;14.00;;;;;11.09;49.53;101842.31;5038225;28;45288;-38
2022/04/27 00:47:45;;;;;;;;;11.50;11.00;;;;;11.08;48.54;101845.94;5038374;28;45329;-42
2022/04/27 00:50:11;;;;;;;;;19.25;14.50;;;;;11.03;48.97;101834.78;5038463;28;45235;-42
2022/04/27 00:52:38;;;;;;;;;22.75;14.50;;;;;10.93;49.05;101825.84;5037802;28;46364;-38
2022/04/27 00:55:04;;;;;;;;;21.25;14.25;;;;;10.99;49.21;101836.84;5037907;28;45513;-39
2022/04/27 00:57:30;;;;;;;;;21.50;15.00;;;;;10.98;49.49;101836.97;5037874;28;45238;-41
2022/04/27 00:59:55;;;;;;;;;13.75;11.25;;;;;10.91;49.68;101833.97;5037960;28;45478;-39
2022/04/27 01:02:21;;;;;;;;;18.50;11.00;;;;;10.96;48.91;101833.59;5037816;28;45368;-46
2022/04/27 01:04:47;;;;;;;;;15.00;12.25;;;;;10.92;49.77;101830.34;5037894;28;45415;-42
2022/04/27 01:07:13;;;;;;;;;15.75;12.00;;;;;10.92;49.55;101834.81;5037861;28;45277;-38
2022/04/27 01:09:39;;;;;;;;;21.25;13.00;;;;;10.91;49.59;101827.78;5038042;28;45361;-38
2022/04/27 01:12:05;;;;;;;;;14.75;13.25;;;;;10.82;50.08;101823.19;5037518;28;47214;-39
2022/04/27 01:14:44;;;;;;;;;19.50;15.50;;;;;10.85;49.38;101825.63;5037500;28;45479;-43
2022/04/27 01:17:10;;;;;;;;;16.50;12.25;;;;;10.83;49.88;101831.09;5037896;28;45334;-44
2022/04/27 01:19:36;;;;;;;;;20.00;15.00;;;;;10.82;49.88;101833.84;5038059;28;45337;-43
2022/04/27 01:22:03;;;;;;;;;16.00;14.00;;;;;10.81;49.95;101835.66;5037586;28;46235;-40
2022/04/27 01:24:29;;;;;;;;;17.50;12.75;;;;;10.80;49.99;101828.66;5037337;28;45417;-43
2022/04/27 01:26:55;;;;;;;;;19.25;12.50;;;;;10.78;49.90;101830.56;5037653;28;45345;-43
2022/04/27 01:29:24;;;;;;;;;13.75;13.75;;;;;10.76;49.65;101824.53;5037703;28;45301;-38
2022/04/27 01:31:52;;;;;;;;;14.00;11.25;;;;;10.74;50.15;101821.13;5036246;28;46131;-42
2022/04/27 01:34:18;;;;;;;;;22.75;14.00;;;;;10.71;50.37;101819.59;5037158;28;45276;-41
2022/04/27 01:36:44;;;;;;;;;15.75;13.00;;;;;10.68;50.49;101827.81;5037218;28;45283;-41
2022/04/27 01:39:09;;;;;;;;;14.25;12.50;;;;;10.66;49.96;101828.88;5037133;28;45502;-40
2022/04/27 01:41:36;;;;;;;;;21.25;16.50;;;;;10.63;49.88;101827.31;5037173;28;45945;-44
2022/04/27 01:44:02;;;;;;;;;18.00;13.75;;;;;10.64;50.09;101823.69;5037350;28;45501;-38
2022/04/27 01:46:28;;;;;;;;;15.00;10.75;;;;;10.62;49.97;101832.75;5037289;28;45475;-40
2022/04/27 01:48:54;;;;;;;;;9.00;9.00;;;;;10.47;50.66;101805.53;5037602;28;45358;-37
2022/04/27 01:54:14;;;;;;;;;15.75;15.75;;;;;10.46;50.15;101810.03;5036929;28;46650;-37
2022/04/27 01:54:17;;;;;;;;;13.00;11.25;;;;;10.57;50.04;101824.28;5037048;28;45495;-39
2022/04/27 01:56:47;;;;;;;;;15.00;12.50;;;;;10.52;50.29;101827.31;5037181;28;45951;-41
2022/04/27 01:59:13;;;;;;;;;19.75;12.75;;;;;10.52;50.54;101831.78;5037293;28;45188;-38
2022/04/27 02:01:39;;;;;;;;;20.50;16.00;;;;;10.39;50.55;101821.25;5036664;28;45907;-41
2022/04/27 02:04:05;;;;;;;;;20.75;16.75;;;;;10.47;50.13;101840.13;5036968;28;45225;-38
2022/04/27 02:06:30;;;;;;;;;23.75;13.00;;;;;10.45;50.59;101834.09;5036973;28;45468;-44
2022/04/27 02:08:56;;;;;;;;;14.25;14.25;;;;;10.41;50.73;101843.28;5036888;28;45480;-40
2022/04/27 02:11:25;;;;;;;;;21.50;17.00;;;;;10.39;50.79;101843.38;5036739;28;47045;-41
2022/04/27 02:13:54;;;;;;;;;16.00;14.50;;;;;10.37;51.08;101847.13;5036618;28;45292;-38
2022/04/27 02:16:27;;;;;;;;;21.50;17.75;;;;;10.35;51.48;101851.72;5036845;28;45400;-41
2022/04/27 02:18:52;;;;;;;;;21.00;17.00;;;;;10.24;51.37;101832.13;5037083;28;45330;-38
2022/04/27 02:21:20;;;;;;;;;25.50;18.00;;;;;10.33;51.31;101854.50;5036379;28;46881;-41
2022/04/27 02:23:46;;;;;;;;;19.75;14.75;;;;;10.27;51.89;101838.16;5036373;28;45612;-37
2022/04/27 02:26:12;;;;;;;;;17.00;15.25;;;;;10.31;51.78;101848.44;5036756;28;45331;-38
2022/04/27 02:28:37;;;;;;;;;24.50;15.25;;;;;10.31;51.58;101840.44;5036729;28;45304;-39
2022/04/27 02:31:03;;;;;;;;;18.00;14.25;;;;;10.29;51.93;101846.88;5036400;28;46150;-39
2022/04/27 02:33:31;;;;;;;;;23.25;16.00;;;;;10.29;51.78;101849.53;5036555;28;45443;-39
2022/04/27 02:35:57;;;;;;;;;25.50;17.50;;;;;10.16;52.10;101815.88;5036638;28;45241;-39
2022/04/27 02:38:23;;;;;;;;;18.25;15.75;;;;;10.22;50.97;101833.16;5036833;28;45392;-41
2022/04/27 02:40:48;;;;;;;;;25.25;21.00;;;;;10.26;52.27;101836.47;5035851;28;46604;-42
2022/04/27 02:43:15;;;;;;;;;22.00;17.00;;;;;10.22;51.61;101846.44;5038908;28;45312;-38
2022/04/27 02:45:41;;;;;;;;;21.50;17.75;;;;;10.21;52.26;101844.78;5040128;28;45395;-39
2022/04/27 02:48:07;;;;;;;;;20.50;17.50;;;;;10.09;51.77;101829.75;5039947;28;45353;-38
2022/04/27 02:53:16;;;;;;;;;19.25;19.00;;;;;10.18;52.14;101843.19;5039866;28;45317;-38
2022/04/27 02:55:42;;;;;;;;;19.50;15.00;;;;;10.15;51.81;101838.09;5039559;28;45377;-39
2022/04/27 02:58:07;;;;;;;;;21.25;17.50;;;;;10.11;52.50;101833.13;5039915;28;45235;-42
2022/04/27 03:00:34;;;;;;;;;25.25;19.25;;;;;10.13;52.80;101840.03;5039377;28;45926;-38
2022/04/27 03:03:01;;;;;;;;;23.50;19.75;;;;;10.14;52.36;101844.38;5039453;28;45511;-38
2022/04/27 03:05:27;;;;;;;;;24.50;19.00;;;;;10.14;52.18;101843.53;5039768;28;45290;-40
2022/04/27 03:07:52;;;;;;;;;19.00;15.50;;;;;10.13;52.72;101840.03;5039805;28;45484;-38
2022/04/27 03:10:17;;;;;;;;;23.00;16.50;;;;;9.98;52.69;101815.44;5039263;28;46046;-38
2022/04/27 03:12:43;;;;;;;;;24.25;21.50;;;;;10.10;52.49;101839.41;5039601;28;45386;-37
2022/04/27 03:15:09;;;;;;;;;24.00;19.00;;;;;10.08;53.21;101838.69;5039575;28;45293;-43
2022/04/27 03:17:34;;;;;;;;;25.75;18.25;;;;;10.07;52.58;101832.53;5039865;28;45214;-42
2022/04/27 03:20:00;;;;;;;;;20.75;16.75;;;;;10.05;52.90;101834.44;5039208;28;46583;-41
2022/04/27 03:22:25;;;;;;;;;21.00;19.00;;;;;10.00;52.74;101825.97;5039317;28;45301;-43
2022/04/27 03:24:50;;;;;;;;;22.00;19.50;;;;;9.98;53.32;101833.22;5039344;28;45313;-41
2022/04/27 03:27:16;;;;;;;;;23.00;20.25;;;;;9.97;52.53;101834.19;5039326;28;45341;-43
2022/04/27 03:29:41;;;;;;;;;23.25;20.00;;;;;9.94;52.99;101827.31;5039383;28;45950;-38
2022/04/27 03:32:09;;;;;;;;;24.00;21.75;;;;;9.93;53.24;101836.22;5039112;28;45359;-42
2022/04/27 03:34:35;;;;;;;;;30.00;17.75;;;;;9.93;53.43;101832.72;5039183;28;45443;-44
2022/04/27 03:37:00;;;;;;;;;25.25;20.00;;;;;9.89;53.87;101832.09;5039528;28;45337;-38
2022/04/27 03:39:26;;;;;;;;;22.50;18.75;;;;;9.89;53.31;101831.25;5038782;28;45877;-44
2022/04/27 03:41:51;;;;;;;;;25.25;22.00;;;;;9.84;53.44;101825.44;5039151;28;45378;-39
2022/04/27 03:44:17;;;;;;;;;20.00;18.25;;;;;9.84;53.37;101828.09;5039182;28;45282;-41
2022/04/27 03:46:43;;;;;;;;;28.75;23.00;;;;;9.84;53.71;101828.94;5039547;28;45374;-43
2022/04/27 03:49:08;;;;;;;;;24.75;23.25;;;;;9.81;53.57;101823.00;5038788;28;45855;-43
2022/04/27 03:51:34;;;;;;;;;28.50;22.50;;;;;9.74;54.70;101817.31;5038942;28;45322;-42
2022/04/27 03:53:59;;;;;;;;;22.25;18.50;;;;;9.73;54.24;101829.75;5038089;28;45477;-41
2022/04/27 03:56:25;;;;;;;;;23.00;19.75;;;;;9.71;54.37;101822.84;5039096;28;45649;-40
2022/04/27 03:58:50;;;;;;;;;21.75;19.75;;;;;9.68;53.74;101820.41;5038604;28;46062;-38
2022/04/27 04:01:15;;;;;;;;;27.00;22.25;;;;;9.67;54.47;101824.88;5038683;28;45444;-42
2022/04/27 04:03:41;;;;;;;;;27.25;20.50;;;;;9.65;54.04;101824.16;5038807;28;45419;-41
2022/04/27 04:06:06;;;;;;;;;32.00;23.75;;;;;9.64;53.67;101832.22;5039091;28;45262;-38
2022/04/27 04:08:32;;;;;;;;;26.00;23.50;;;;;9.62;54.28;101823.53;5038652;28;46148;-42
2022/04/27 04:10:57;;;;;;;;;28.75;25.25;;;;;9.61;55.19;101840.44;5038324;28;45559;-38
2022/04/27 04:13:23;;;;;;;;;23.75;22.00;;;;;9.59;54.51;101840.53;5038829;28;45432;-38
2022/04/27 04:15:49;;;;;;;;;18.75;16.00;;;;;9.53;55.07;101829.53;5038825;28;45347;-44
2022/04/27 04:18:15;;;;;;;;;33.25;25.00;;;;;9.53;55.69;101838.34;5038363;28;45436;-43
2022/04/27 04:20:41;;;;;;;;;26.75;24.75;;;;;9.52;55.14;101847.25;5038308;28;45401;-41
2022/04/27 04:23:06;;;;;;;;;25.50;23.00;;;;;9.44;54.94;101839.88;5037173;28;45416;-36
2022/04/27 04:28:30;;;;;;;;;29.50;24.25;;;;;9.48;54.37;101853.75;5038269;28;45439;-40
2022/04/27 04:30:58;;;;;;;;;29.50;22.75;;;;;9.44;55.57;101850.50;5038175;28;45401;-39
2022/04/27 04:33:24;;;;;;;;;27.00;19.00;;;;;9.40;55.47;101845.53;5038425;28;45437;-43
2022/04/27 04:35:50;;;;;;;;;30.50;21.25;;;;;9.39;55.50;101842.00;5038573;28;45411;-40
2022/04/27 04:38:15;;;;;;;;;27.25;24.00;;;;;9.40;55.45;101848.19;5038130;28;45436;-42
2022/04/27 04:40:40;;;;;;;;;35.25;26.25;;;;;9.35;55.91;101840.53;5037866;28;45203;-38
2022/04/27 04:43:06;;;;;;;;;37.50;29.00;;;;;9.40;55.82;101858.81;5038194;28;45243;-41
2022/04/27 04:45:31;;;;;;;;;36.50;26.75;;;;;9.38;55.30;101855.41;5038264;28;45225;-41
2022/04/27 04:47:57;;;;;;;;;30.00;27.50;;;;;9.38;56.34;101855.41;5038181;28;45357;-39
2022/04/27 04:50:23;;;;;;;;;32.75;26.00;;;;;9.34;56.51;101849.47;5037992;28;45527;-43
2022/04/27 04:52:48;;;;;;;;;31.50;28.50;;;;;9.36;55.17;101866.16;5038127;28;45238;-39
2022/04/27 04:55:14;;;;;;;;;33.00;28.25;;;;;9.25;56.03;101839.53;5038380;28;45446;-44
2022/04/27 04:57:40;;;;;;;;;33.25;25.50;;;;;9.38;55.95;101866.88;5038049;28;45563;-42
2022/04/27 05:00:09;;;;;;;;;33.25;26.25;;;;;9.38;55.42;101866.88;5037950;28;45282;-41
2022/04/27 05:02:35;;;;;;;;;37.00;26.00;;;;;9.39;56.06;101867.72;5037815;28;45404;-41
2022/04/27 05:05:04;;;;;;;;;33.50;28.75;;;;;9.37;56.10;101870.50;5037777;28;45231;-43
2022/04/27 05:07:31;;;;;;;;;26.75;21.75;;;;;9.42;55.71;101878.13;5037619;28;45301;-38
2022/04/27 05:09:57;;;;;;;;;34.50;26.00;;;;;9.39;56.73;101871.22;5037467;28;45522;-39
2022/04/27 05:12:23;;;;;;;;;39.00;25.25;;;;;9.43;55.64;101877.16;5037668;28;45333;-39
2022/04/27 05:14:52;;;;;;;;;35.75;25.50;;;;;9.38;55.01;101863.38;5037731;28;45944;-45
2022/04/27 05:17:18;;;;;;;;;30.50;25.00;;;;;9.43;56.34;101871.84;5037317;28;45420;-38
2022/04/27 05:19:44;;;;;;;;;31.25;26.50;;;;;9.43;56.20;101874.50;5037331;28;45323;-43
2022/04/27 05:22:10;;;;;;;;;27.00;23.00;;;;;9.48;56.23;101877.66;5037496;28;45216;-39
2022/04/27 05:24:35;;;;;;;;;30.50;28.50;;;;;9.51;55.95;101882.75;5037739;28;45356;-38
2022/04/27 05:27:01;;;;;;;;;37.25;30.50;;;;;9.52;56.27;101891.56;5037202;28;46010;-42
2022/04/27 05:32:13;;;;;;;;;27.50;26.00;;;;;9.56;56.70;101891.25;5037478;28;45402;-41
2022/04/27 05:34:39;;;;;;;;;35.00;32.25;;;;;9.57;57.04;101886.81;5037462;28;45648;-39
2022/04/27 05:37:04;;;;;;;;;35.00;26.00;;;;;9.60;54.82;101899.84;5037010;28;45939;-38
2022/04/27 05:39:31;;;;;;;;;38.25;30.50;;;;;9.39;56.18;101854.44;5037079;28;45459;-39
2022/04/27 05:41:56;;;;;;;;;36.75;29.75;;;;;9.67;56.73;101898.44;5037227;28;45310;-38
2022/04/27 05:44:24;;;;;;;;;34.75;27.00;;;;;9.70;56.19;101898.22;5037523;28;45172;-38
2022/04/27 05:46:50;;;;;;;;;34.75;26.25;;;;;9.69;56.34;101900.03;5037182;28;45465;-43
2022/04/27 05:49:16;;;;;;;;;37.50;31.25;;;;;9.79;56.05;101910.81;5036957;28;45240;-40
2022/04/27 05:51:41;;;;;;;;;39.50;31.25;;;;;9.82;55.76;101912.38;5037011;28;45339;-42
2022/04/27 05:54:07;;;;;;;;;33.00;30.25;;;;;9.86;55.73;101909.41;5037384;28;45330;-38
2022/04/27 05:56:33;;;;;;;;;35.25;29.00;;;;;9.92;55.97;101918.75;5036737;28;45391;-40
2022/04/27 05:58:59;;;;;;;;;35.75;27.00;;;;;9.95;56.14;101919.38;5036681;28;45339;-40
2022/04/27 06:01:24;;;;;;;;;48.00;32.25;;;;;10.04;55.56;101924.97;5037096;28;45428;-41
2022/04/27 06:03:50;;;;;;;;;40.75;27.75;;;;;10.09;55.15;101923.66;5037277;28;45293;-44
2022/04/27 06:06:16;;;;;;;;;45.00;27.75;;;;;10.06;55.84;101917.69;5036843;28;45996;-39
2022/04/27 06:08:42;;;;;;;;;46.00;31.50;;;;;10.18;55.08;101927.41;5036734;28;45401;-42
2022/04/27 06:11:07;;;;;;;;;44.25;27.75;;;;;10.20;54.99;101926.34;5036653;28;45270;-38
2022/04/27 06:13:33;;;;;;;;;36.00;33.00;;;;;10.28;54.73;101933.78;5037062;28;45232;-39
2022/04/27 06:15:59;;;;;;;;;47.25;29.00;;;;;10.31;54.98;101936.19;5037073;28;45333;-43
2022/04/27 06:18:24;;;;;;;;;47.00;34.50;;;;;10.32;55.16;101935.22;5043037;28;45328;-40
2022/04/27 06:20:52;;;;;;;;;35.00;31.25;;;;;10.41;54.67;101941.69;5043547;28;45251;-40
2022/04/27 06:23:18;;;;;;;;;46.00;34.25;;;;;10.36;54.77;101919.88;5043988;28;45396;-38
2022/04/27 06:25:47;;;;;;;;;38.75;32.25;;;;;10.47;54.39;101936.75;5043130;28;45297;-37
2022/04/27 06:28:13;;;;;;;;;39.00;34.25;;;;;10.54;54.70;101942.47;5043018;28;45484;-38
2022/04/27 06:30:39;;;;;;;;;35.25;30.00;;;;;10.64;54.49;101943.44;5043533;28;45340;-39
2022/04/27 06:33:05;;;;;;;;;31.25;27.75;;;;;10.78;54.68;101946.84;5043350;28;45416;-40
2022/04/27 06:35:30;;;;;;;;;41.00;27.50;;;;;10.87;54.02;101952.31;5043167;28;46196;-37
2022/04/27 06:37:56;;;;;;;;;44.75;32.75;;;;;10.93;54.04;101948.31;5043261;28;45638;-38
2022/04/27 06:40:22;;;;;;;;;48.75;38.75;;;;;11.02;53.32;101958.25;5043238;28;45424;-37
2022/04/27 06:42:48;;;;;;;;;48.00;38.00;;;;;11.09;53.79;101953.31;5043339;28;45560;-42
2022/04/27 06:45:13;;;;;;;;;42.25;33.75;;;;;11.07;53.22;101933.91;5043416;28;45870;-38
2022/04/27 06:47:38;;;;;;;;;44.50;35.50;;;;;11.29;53.40;101954.38;5043646;28;45451;-43
2022/04/27 06:50:06;;;;;;;;;40.75;35.50;;;;;11.41;53.46;101958.72;5043867;28;45396;-38
2022/04/27 06:52:32;;;;;;;;;44.25;36.25;;;;;11.57;53.04;101961.03;5044226;28;45423;-40
2022/04/27 06:54:58;;;;;;;;;40.25;25.50;;;;;11.75;53.17;101956.84;5043204;28;46382;-45
2022/04/27 06:57:23;;;;;;;;;45.25;36.75;;;;;11.94;52.20;101958.91;5042014;28;45404;-38
2022/04/27 06:59:48;;;;;;;;;46.00;36.50;;;;;12.35;51.71;101952.81;5043407;28;45453;-40
2022/04/27 07:02:15;;;;;;;;;42.00;34.25;;;;;13.26;49.63;101953.94;5043290;28;45576;-43
2022/04/27 07:04:43;;;;;;;;;42.75;28.75;;;;;14.38;48.30;101957.22;5042813;28;45377;-38
2022/04/27 07:07:09;;;;;;;;;40.50;33.00;;;;;15.39;45.06;101969.13;5042531;28;45343;-42
2022/04/27 07:09:35;;;;;;;;;45.00;35.25;;;;;16.21;43.05;101962.81;5042871;28;45329;-44
2022/04/27 07:12:01;;;;;;;;;38.50;33.75;;;;;16.86;42.13;101960.69;5042753;28;45547;-41
2022/04/27 07:14:26;;;;;;;;;42.50;32.00;;;;;17.44;41.11;101960.00;5042585;28;45834;-39
2022/04/27 07:16:51;;;;;;;;;36.75;33.50;;;;;17.99;40.36;101964.03;5042739;28;45223;-39
2022/04/27 07:19:17;;;;;;;;;45.00;32.00;;;;;18.38;39.18;101960.72;5042675;28;45360;-37
2022/04/27 07:21:43;;;;;;;;;32.00;29.33;;;;;18.70;39.98;101963.41;5042650;28;45306;-38
2022/04/27 07:24:08;;;;;;;;;43.00;33.00;;;;;18.83;38.46;101962.88;5042453;28;45927;-45
2022/04/27 07:26:34;;;;;;;;;35.33;29.67;;;;;18.98;37.77;101960.34;5042809;28;45444;-41
2022/04/27 07:29:00;;;;;;;;;36.67;30.33;;;;;19.15;38.49;101970.06;5040259;28;45276;-37
2022/04/27 07:31:26;;;;;;;;;37.67;32.67;;;;;19.31;37.44;101958.38;5039528;28;45391;-39
2022/04/27 07:33:51;;;;;;;;;33.67;31.67;;;;;19.53;37.45;101964.03;5039208;28;46093;-42
2022/04/27 07:36:17;;;;;;;;;42.00;33.33;;;;;19.76;36.85;101962.22;5039115;28;45523;-39
2022/04/27 07:38:43;;;;;;;;;43.33;33.00;;;;;19.98;37.26;101966.00;5039279;28;45312;-40
2022/04/27 07:41:09;;;;;;;;;35.00;32.00;;;;;20.24;35.79;101970.22;5039242;28;45462;-46
2022/04/27 07:43:35;;;;;;;;;36.33;32.00;;;;;20.41;35.17;101964.47;5038992;28;45377;-42
2022/04/27 07:46:01;;;;;;;;;35.33;31.67;;;;;20.68;35.41;101968.47;5038894;28;45313;-44
2022/04/27 07:48:32;;;;;;;;;34.00;31.00;;;;;20.98;34.30;101967.69;5039117;28;45496;-38
2022/04/27 07:51:02;;;;;;;;;33.00;27.00;;;;;21.32;34.54;101977.97;5039102;28;45341;-45
2022/04/27 07:53:28;;;;;;;;;33.33;30.00;;;;;21.71;33.46;101972.25;5038682;28;46070;-44
2022/04/27 07:55:54;;;;;;;;;36.67;33.00;;;;;22.15;32.82;101969.41;5038738;28;45389;-43
2022/04/27 07:58:20;;;;;;;;;35.67;31.33;;;;;22.75;33.21;101974.50;5038839;28;45292;-39
2022/04/27 08:00:45;;;;;;;;;42.00;34.00;;;;;23.72;30.46;101966.31;5038710;28;45361;-40
2022/04/27 08:03:11;;;;;;;;;34.33;30.00;;;;;25.08;31.13;101969.59;5038936;28;45708;-39
2022/04/27 08:05:36;;;;;;;;;35.33;31.00;;;;;26.48;28.26;101969.75;5038842;28;45343;-44
2022/04/27 08:08:02;;;;;;;;;38.00;32.67;;;;;27.53;29.19;101969.72;5038722;28;45316;-43
2022/04/27 08:10:28;;;;;;;;;36.67;30.00;;;;;28.37;26.09;101967.06;5038883;28;45267;-40
2022/04/27 08:12:53;;;;;;;;;32.00;29.00;;;;;28.96;24.26;101959.75;5038489;28;46306;-39
2022/04/27 08:15:21;;;;;;;;;32.67;30.00;;;;;29.27;23.75;101920.09;5038424;28;45265;-39
2022/04/27 08:17:59;;;;;;;;;38.67;32.67;;;;;30.28;24.83;101968.94;5038924;28;45259;-39
2022/04/27 08:23:12;;;;;;;;;32.25;29.00;;;;;31.54;21.32;101968.31;5038640;28;45691;-39
2022/04/27 08:25:38;;;;;;;;;32.50;29.50;;;;;32.07;20.80;101969.44;5038516;28;45407;-43
2022/04/27 08:28:06;;;;;;;;;30.50;29.50;;;;;32.51;20.45;101969.28;5038473;28;45330;-40
2022/04/27 08:30:36;;;;;;;;;34.75;30.50;;;;;33.05;22.35;101965.50;5038808;28;45370;-41
2022/04/27 08:33:03;;;;;;;;;30.50;29.00;;;;;33.65;20.28;101970.44;5038384;28;45460;-39
2022/04/27 08:35:29;;;;;;;;;28.20;24.00;;;;;33.98;19.12;101969.16;5038091;28;45428;-42
2022/04/27 08:37:55;;;;;;;;;33.25;30.25;;;;;34.33;18.89;101956.44;5038368;28;45385;-42
2022/04/27 08:40:21;;;;;;;;;28.75;26.50;;;;;34.74;19.65;101967.50;5038089;28;45302;-40
2022/04/27 08:42:48;;;;;;;;;31.50;27.75;;;;;35.15;18.70;101971.00;5037993;28;45321;-39
2022/04/27 08:45:13;;;;;;;;;28.20;27.20;;;;;35.33;18.79;101972.28;5038123;28;45368;-42
2022/04/27 08:47:39;;;;;;;;;37.00;28.50;;;;;35.60;18.62;101969.13;5038114;28;45427;-39
2022/04/27 08:50:16;;;;;;;;;38.50;31.25;;;;;35.90;16.67;101962.56;5038306;28;45392;-41
2022/04/27 08:52:43;;;;;;;;;29.20;26.60;;;;;36.51;17.29;101963.22;5037883;28;45405;-40
2022/04/27 08:55:09;;;;;;;;;31.80;31.00;;;;;37.06;17.29;101963.75;5037882;28;45403;-40
2022/04/27 08:57:35;;;;;;;;;34.20;28.40;;;;;37.51;15.75;101951.22;5038031;28;45388;-39
2022/04/27 09:00:06;;;;;;;;;36.00;31.00;;;;;37.88;15.02;101961.53;5037826;28;45528;-39
2022/04/27 09:02:33;;;;;;;;;32.00;27.00;;;;;38.08;16.03;101963.13;5037590;28;45376;-39
2022/04/27 09:05:05;;;;;;;;;34.60;29.80;;;;;38.49;17.05;101964.41;5037721;28;45479;-40
2022/04/27 09:07:58;;;;;;;;;28.20;27.20;;;;;38.65;16.27;101969.38;5038015;28;45234;-39
2022/04/27 09:10:25;;;;;;;;;32.60;27.80;;;;;38.92;15.08;101960.25;5037811;28;45340;-38
2022/04/27 09:12:57;;;;;;;;;32.60;25.60;;;;;39.03;15.51;101960.03;5037536;28;45212;-39
2022/04/27 09:15:25;;;;;;;;;35.60;28.80;;;;;39.20;15.90;101957.44;5037442;28;45175;-38
2022/04/27 09:20:54;;;;;;;;;31.00;24.40;;;;;39.76;14.83;101955.38;5037875;28;45350;-38
2022/04/27 09:23:37;;;;;;;;;27.20;25.80;;;;;40.20;15.37;101962.09;5037409;28;46346;-40
2022/04/27 09:26:19;;;;;;;;;31.80;26.40;;;;;40.38;15.23;101956.34;5037704;28;45356;-39
2022/04/27 09:28:55;;;;;;;;;34.40;30.80;;;;;40.61;13.94;101953.50;5037429;28;45454;-38
2022/04/27 09:31:34;;;;;;;;;32.80;28.20;;;;;40.84;14.73;101959.84;5037480;28;45478;-41
2022/04/27 09:37:16;;;;;;;;;30.00;28.00;;;;;40.94;14.07;101961.50;5015110;28;45363;-44
2022/04/27 09:39:43;;;;;;;;;30.00;27.80;;;;;41.17;13.35;101957.47;5015276;28;45646;-45
2022/04/27 09:42:10;;;;;;;;;26.00;24.80;;;;;41.54;15.20;101961.66;5015323;28;45323;-43
2022/04/27 09:44:39;;;;;;;;;28.20;26.80;;;;;41.76;13.41;101960.69;5014727;28;45927;-44
2022/04/27 09:47:06;;;;;;;;;33.00;29.20;;;;;41.78;13.15;101950.00;5015134;28;45442;-43
2022/04/27 09:49:40;;;;;;;;;31.80;28.00;;;;;41.71;13.52;101951.63;5015093;28;45445;-46
2022/04/27 09:52:07;;;;;;;;;31.80;25.80;;;;;42.24;12.80;101954.09;5014144;28;45375;-41
2022/04/27 09:54:36;;;;;;;;;32.20;27.20;;;;;42.70;12.90;101952.47;5014796;28;45504;-39
2022/04/27 09:57:06;;;;;;;;;31.80;28.60;;;;;42.93;12.71;101955.78;5014747;28;45404;-41
2022/04/27 09:59:35;;;;;;;;;29.00;24.60;;;;;41.98;13.23;101956.09;5014704;28;45390;-44
2022/04/27 10:02:13;;;;;;;;;31.40;26.60;;;;;42.18;12.75;101948.94;5015024;28;45523;-43
2022/04/27 10:04:40;;;;;;;;;32.60;27.00;;;;;42.26;12.90;101939.75;5014878;28;46016;-42
2022/04/27 10:07:07;;;;;;;;;27.60;25.00;;;;;42.66;13.29;101945.88;5014735;28;45440;-47
2022/04/27 10:09:33;;;;;;;;;30.20;25.60;;;;;43.01;12.33;101938.09;5015024;28;45506;-40
2022/04/27 10:12:04;;;;;;;;;22.40;21.60;;;;;41.71;14.81;101938.47;5015345;28;45495;-45
2022/04/27 10:14:30;;;;;;;;;27.60;26.20;;;;;40.73;13.50;101938.94;5035507;28;46193;-41
2022/04/27 10:16:57;;;;;;;;;28.00;23.00;;;;;39.38;14.97;101933.41;5036861;28;45242;-45
2022/04/27 10:19:23;;;;;;;;;32.60;29.40;;;;;38.50;15.07;101933.50;5036910;28;45448;-42
2022/04/27 10:21:57;;;;;;;;;29.00;27.20;;;;;38.52;15.74;101928.47;5037020;28;45500;-41
2022/04/27 10:24:35;;;;;;;;;31.40;26.80;;;;;39.33;14.52;101922.41;5036427;28;46194;-44
2022/04/27 10:27:20;;;;;;;;;30.20;28.20;;;;;39.76;14.32;101880.19;5036832;28;45435;-45
2022/04/27 10:29:51;;;;;;;;;31.00;28.00;;;;;39.16;14.41;101906.31;5036759;28;45339;-42
2022/04/27 10:32:36;;;;;;;;;27.40;25.60;;;;;39.03;15.33;101912.75;5037154;28;45573;-40
2022/04/27 10:35:15;;;;;;;;;31.60;27.00;;;;;39.57;14.56;101910.94;5036430;28;46027;-39
2022/04/27 10:38:02;;;;;;;;;32.80;26.60;;;;;40.30;14.64;101906.09;5036414;28;45414;-39
2022/04/27 10:40:38;;;;;;;;;13.80;13.40;;;;;38.36;14.86;101907.66;5036720;28;45439;-39
2022/04/27 10:43:06;;;;;;;;;25.40;24.00;;;;;36.55;15.90;101906.06;5036685;28;45290;-40
2022/04/27 10:45:42;;;;;;;;;29.60;27.20;;;;;34.56;16.57;101908.13;5036108;28;45404;-42
2022/04/27 10:48:17;;;;;;;;;23.80;23.40;;;;;33.61;17.71;101914.16;5036420;28;45428;-41
2022/04/27 10:51:07;;;;;;;;;19.40;19.00;;;;;35.35;16.66;101906.41;5036416;28;45309;-40
2022/04/27 10:53:43;;;;;;;;;21.40;19.00;;;;;36.67;15.88;101895.41;5035333;28;45477;-43
2022/04/27 10:56:23;;;;;;;;;22.40;22.00;;;;;36.88;15.54;101896.81;5035989;28;46378;-40
2022/04/27 10:58:49;;;;;;;;;26.20;23.60;;;;;36.12;16.07;101894.84;5036346;28;45492;-41
2022/04/27 11:01:24;;;;;;;;;25.50;25.50;;;;;34.93;16.92;101898.56;5036073;28;45400;-43
2022/04/27 11:03:58;;;;;;;;;22.80;21.80;;;;;35.86;16.64;101888.66;5038448;28;45245;-44
2022/04/27 11:06:24;;;;;;;;;29.80;23.80;;;;;35.74;15.86;101898.16;5039535;28;45840;-42
2022/04/27 11:08:56;;;;;;;;;18.40;17.00;;;;;36.27;15.90;101891.91;5039649;28;45416;-39
2022/04/27 11:11:26;;;;;;;;;23.00;19.20;;;;;35.09;16.12;101886.38;5039528;28;45425;-41
2022/04/27 11:13:58;;;;;;;;;23.80;22.20;;;;;33.53;17.82;101884.34;5039823;28;45507;-40
2022/04/27 11:16:24;;;;;;;;;22.40;20.80;;;;;33.91;17.51;101879.41;5039281;28;45632;-40
2022/04/27 11:18:57;;;;;;;;;22.25;20.25;;;;;34.80;16.99;101891.72;5039478;28;45339;-39
2022/04/27 11:21:30;;;;;;;;;23.60;19.20;;;;;35.47;16.47;101882.03;5039376;28;45408;-40
2022/04/27 11:23:59;;;;;;;;;24.80;20.40;;;;;35.85;16.50;101879.53;5039590;28;45388;-37
2022/04/27 11:26:25;;;;;;;;;22.20;19.40;;;;;34.58;16.65;101878.25;5039221;28;45466;-40
2022/04/27 11:28:53;;;;;;;;;21.60;19.60;;;;;34.46;17.05;101885.97;5039263;28;45565;-39
2022/04/27 11:31:19;;;;;;;;;17.60;15.80;;;;;34.68;16.79;101874.63;5039195;28;45448;-41